sensor_id;sensor_type;location;lat;lon;timestamp;P1;durP1;ratioP1;P2;durP2;ratioP2
703;SDS011;335;48.694;9.120;2022-08-19T00:02:01;16.63;;;15.13;;
703;SDS011;335;48.694;9.120;2022-08-19T00:04:28;16.97;;;15.37;;
703;SDS011;335;48.694;9.120;2022-08-19T00:06:55;15.77;;;14.43;;
703;SDS011;335;48.694;9.120;2022-08-19T00:09:21;17.20;;;15.70;;
703;SDS011;335;48.694;9.120;2022-08-19T00:11:47;17.77;;;16.20;;
703;SDS011;335;48.694;9.120;2022-08-19T00:14:14;17.60;;;16.10;;
703;SDS011;335;48.694;9.120;2022-08-19T00:16:41;18.90;;;15.00;;
703;SDS011;335;48.694;9.120;2022-08-19T00:19:08;16.27;;;14.87;;
703;SDS011;335;48.694;9.120;2022-08-19T00:21:33;16.07;;;14.77;;
703;SDS011;335;48.694;9.120;2022-08-19T00:24:04;15.77;;;14.47;;
703;SDS011;335;48.694;9.120;2022-08-19T00:26:31;16.80;;;15.40;;
703;SDS011;335;48.694;9.120;2022-08-19T00:28:57;16.50;;;15.10;;
703;SDS011;335;48.694;9.120;2022-08-19T00:31:22;16.50;;;15.10;;
703;SDS011;335;48.694;9.120;2022-08-19T00:33:47;16.30;;;14.87;;
703;SDS011;335;48.694;9.120;2022-08-19T00:36:15;16.00;;;14.70;;
703;SDS011;335;48.694;9.120;2022-08-19T00:38:41;17.63;;;16.00;;
703;SDS011;335;48.694;9.120;2022-08-19T00:41:08;17.20;;;15.70;;
703;SDS011;335;48.694;9.120;2022-08-19T00:43:39;16.40;;;15.00;;
703;SDS011;335;48.694;9.120;2022-08-19T00:46:06;17.00;;;15.50;;
703;SDS011;335;48.694;9.120;2022-08-19T00:48:31;18.47;;;16.80;;
703;SDS011;335;48.694;9.120;2022-08-19T00:50:58;16.33;;;14.90;;
703;SDS011;335;48.694;9.120;2022-08-19T00:53:24;17.37;;;15.87;;
703;SDS011;335;48.694;9.120;2022-08-19T00:55:52;19.97;;;18.00;;
703;SDS011;335;48.694;9.120;2022-08-19T00:58:19;17.27;;;15.77;;
703;SDS011;335;48.694;9.120;2022-08-19T01:00:46;17.90;;;16.30;;
703;SDS011;335;48.694;9.120;2022-08-19T01:03:14;19.47;;;17.60;;
703;SDS011;335;48.694;9.120;2022-08-19T01:05:43;17.53;;;15.83;;
703;SDS011;335;48.694;9.120;2022-08-19T01:08:09;18.43;;;16.73;;
703;SDS011;335;48.694;9.120;2022-08-19T01:10:45;19.20;;;17.23;;
703;SDS011;335;48.694;9.120;2022-08-19T01:13:17;19.57;;;17.57;;
703;SDS011;335;48.694;9.120;2022-08-19T01:15:45;18.47;;;16.87;;
703;SDS011;335;48.694;9.120;2022-08-19T01:18:12;20.03;;;18.13;;
703;SDS011;335;48.694;9.120;2022-08-19T01:20:40;20.00;;;18.30;;
703;SDS011;335;48.694;9.120;2022-08-19T01:23:06;18.57;;;16.90;;
703;SDS011;335;48.694;9.120;2022-08-19T01:25:33;20.13;;;18.40;;
703;SDS011;335;48.694;9.120;2022-08-19T01:28:00;20.60;;;18.53;;
703;SDS011;335;48.694;9.120;2022-08-19T01:30:27;19.57;;;17.77;;
703;SDS011;335;48.694;9.120;2022-08-19T01:32:55;19.90;;;18.17;;
703;SDS011;335;48.694;9.120;2022-08-19T01:35:21;19.77;;;17.97;;
703;SDS011;335;48.694;9.120;2022-08-19T01:37:53;20.50;;;18.63;;
703;SDS011;335;48.694;9.120;2022-08-19T01:40:25;21.93;;;19.73;;
703;SDS011;335;48.694;9.120;2022-08-19T01:42:52;21.23;;;19.13;;
703;SDS011;335;48.694;9.120;2022-08-19T01:45:19;22.53;;;20.30;;
703;SDS011;335;48.694;9.120;2022-08-19T01:47:46;21.27;;;19.37;;
703;SDS011;335;48.694;9.120;2022-08-19T01:50:12;20.40;;;18.50;;
703;SDS011;335;48.694;9.120;2022-08-19T01:52:38;20.50;;;18.17;;
703;SDS011;335;48.694;9.120;2022-08-19T01:55:06;21.73;;;19.80;;
703;SDS011;335;48.694;9.120;2022-08-19T01:57:33;22.00;;;20.03;;
703;SDS011;335;48.694;9.120;2022-08-19T01:59:59;22.07;;;20.17;;
703;SDS011;335;48.694;9.120;2022-08-19T02:02:25;20.00;;;18.20;;
703;SDS011;335;48.694;9.120;2022-08-19T02:04:51;23.43;;;21.13;;
703;SDS011;335;48.694;9.120;2022-08-19T02:07:18;21.20;;;19.07;;
703;SDS011;335;48.694;9.120;2022-08-19T02:09:45;20.57;;;18.57;;
703;SDS011;335;48.694;9.120;2022-08-19T02:12:10;19.97;;;17.97;;
703;SDS011;335;48.694;9.120;2022-08-19T02:14:36;21.87;;;19.73;;
703;SDS011;335;48.694;9.120;2022-08-19T02:17:02;21.67;;;19.47;;
703;SDS011;335;48.694;9.120;2022-08-19T02:19:27;22.40;;;20.30;;
703;SDS011;335;48.694;9.120;2022-08-19T02:21:52;21.23;;;19.13;;
703;SDS011;335;48.694;9.120;2022-08-19T02:24:18;22.23;;;20.13;;
703;SDS011;335;48.694;9.120;2022-08-19T02:26:43;23.03;;;20.70;;
703;SDS011;335;48.694;9.120;2022-08-19T02:29:08;22.70;;;20.33;;
703;SDS011;335;48.694;9.120;2022-08-19T02:31:34;23.00;;;20.77;;
703;SDS011;335;48.694;9.120;2022-08-19T02:33:59;22.87;;;20.67;;
703;SDS011;335;48.694;9.120;2022-08-19T02:36:25;23.67;;;21.47;;
703;SDS011;335;48.694;9.120;2022-08-19T02:38:51;22.43;;;20.03;;
703;SDS011;335;48.694;9.120;2022-08-19T02:41:19;22.37;;;20.03;;
703;SDS011;335;48.694;9.120;2022-08-19T02:43:47;23.53;;;21.03;;
703;SDS011;335;48.694;9.120;2022-08-19T02:46:17;23.27;;;20.97;;
703;SDS011;335;48.694;9.120;2022-08-19T02:48:47;22.33;;;20.00;;
703;SDS011;335;48.694;9.120;2022-08-19T02:51:18;23.53;;;21.23;;
703;SDS011;335;48.694;9.120;2022-08-19T02:53:45;23.20;;;21.00;;
703;SDS011;335;48.694;9.120;2022-08-19T02:56:11;22.17;;;20.03;;
703;SDS011;335;48.694;9.120;2022-08-19T02:58:36;23.50;;;21.30;;
703;SDS011;335;48.694;9.120;2022-08-19T03:01:01;23.70;;;21.43;;
703;SDS011;335;48.694;9.120;2022-08-19T03:03:27;24.30;;;21.67;;
703;SDS011;335;48.694;9.120;2022-08-19T03:06:02;23.77;;;21.37;;
703;SDS011;335;48.694;9.120;2022-08-19T03:08:35;25.40;;;22.97;;
703;SDS011;335;48.694;9.120;2022-08-19T03:11:01;23.73;;;21.47;;
703;SDS011;335;48.694;9.120;2022-08-19T03:13:27;26.00;;;23.30;;
703;SDS011;335;48.694;9.120;2022-08-19T03:15:53;25.47;;;22.90;;
703;SDS011;335;48.694;9.120;2022-08-19T03:18:18;23.20;;;21.20;;
703;SDS011;335;48.694;9.120;2022-08-19T03:20:44;26.27;;;23.67;;
703;SDS011;335;48.694;9.120;2022-08-19T03:23:13;25.20;;;22.87;;
703;SDS011;335;48.694;9.120;2022-08-19T03:25:40;26.43;;;24.00;;
703;SDS011;335;48.694;9.120;2022-08-19T03:28:08;26.23;;;23.67;;
703;SDS011;335;48.694;9.120;2022-08-19T03:30:37;25.03;;;22.63;;
703;SDS011;335;48.694;9.120;2022-08-19T03:33:05;24.07;;;21.80;;
703;SDS011;335;48.694;9.120;2022-08-19T03:35:31;24.07;;;21.87;;
703;SDS011;335;48.694;9.120;2022-08-19T03:37:57;25.50;;;22.73;;
703;SDS011;335;48.694;9.120;2022-08-19T03:40:23;25.23;;;22.63;;
703;SDS011;335;48.694;9.120;2022-08-19T03:42:49;25.40;;;22.70;;
703;SDS011;335;48.694;9.120;2022-08-19T03:45:14;26.43;;;23.90;;
703;SDS011;335;48.694;9.120;2022-08-19T03:47:40;25.33;;;23.03;;
703;SDS011;335;48.694;9.120;2022-08-19T03:50:05;25.53;;;23.10;;
703;SDS011;335;48.694;9.120;2022-08-19T03:52:31;27.27;;;24.37;;
703;SDS011;335;48.694;9.120;2022-08-19T03:54:56;25.07;;;22.80;;
703;SDS011;335;48.694;9.120;2022-08-19T03:57:21;27.07;;;24.17;;
703;SDS011;335;48.694;9.120;2022-08-19T03:59:47;25.77;;;23.27;;
703;SDS011;335;48.694;9.120;2022-08-19T04:02:12;29.27;;;26.47;;
703;SDS011;335;48.694;9.120;2022-08-19T04:04:39;26.20;;;23.70;;
703;SDS011;335;48.694;9.120;2022-08-19T04:07:06;25.90;;;23.43;;
703;SDS011;335;48.694;9.120;2022-08-19T04:09:32;28.37;;;25.67;;
703;SDS011;335;48.694;9.120;2022-08-19T04:11:59;24.53;;;22.20;;
703;SDS011;335;48.694;9.120;2022-08-19T04:14:25;26.03;;;23.43;;
703;SDS011;335;48.694;9.120;2022-08-19T04:16:54;25.97;;;23.43;;
703;SDS011;335;48.694;9.120;2022-08-19T04:19:19;26.33;;;23.90;;
703;SDS011;335;48.694;9.120;2022-08-19T04:21:53;26.57;;;24.07;;
703;SDS011;335;48.694;9.120;2022-08-19T04:24:19;28.40;;;25.63;;
703;SDS011;335;48.694;9.120;2022-08-19T04:26:46;28.17;;;25.57;;
703;SDS011;335;48.694;9.120;2022-08-19T04:29:30;28.00;;;25.20;;
703;SDS011;335;48.694;9.120;2022-08-19T04:31:55;30.60;;;27.60;;
703;SDS011;335;48.694;9.120;2022-08-19T04:34:22;30.60;;;27.70;;
703;SDS011;335;48.694;9.120;2022-08-19T04:36:50;30.07;;;27.13;;
703;SDS011;335;48.694;9.120;2022-08-19T04:39:18;30.97;;;27.97;;
703;SDS011;335;48.694;9.120;2022-08-19T04:41:45;29.00;;;25.83;;
703;SDS011;335;48.694;9.120;2022-08-19T04:44:30;30.50;;;27.30;;
703;SDS011;335;48.694;9.120;2022-08-19T04:46:56;30.67;;;27.57;;
703;SDS011;335;48.694;9.120;2022-08-19T04:49:22;28.67;;;25.87;;
703;SDS011;335;48.694;9.120;2022-08-19T04:51:48;29.00;;;26.10;;
703;SDS011;335;48.694;9.120;2022-08-19T04:54:15;30.83;;;27.70;;
703;SDS011;335;48.694;9.120;2022-08-19T04:56:42;29.63;;;26.87;;
703;SDS011;335;48.694;9.120;2022-08-19T04:59:07;30.77;;;27.87;;
703;SDS011;335;48.694;9.120;2022-08-19T05:01:33;29.90;;;26.90;;
703;SDS011;335;48.694;9.120;2022-08-19T05:04:01;30.00;;;27.00;;
703;SDS011;335;48.694;9.120;2022-08-19T05:06:29;29.60;;;26.90;;
703;SDS011;335;48.694;9.120;2022-08-19T05:08:57;29.43;;;26.53;;
703;SDS011;335;48.694;9.120;2022-08-19T05:11:27;28.93;;;26.07;;
703;SDS011;335;48.694;9.120;2022-08-19T05:13:54;28.87;;;26.13;;
703;SDS011;335;48.694;9.120;2022-08-19T05:16:21;30.60;;;27.30;;
703;SDS011;335;48.694;9.120;2022-08-19T05:18:47;29.00;;;26.10;;
703;SDS011;335;48.694;9.120;2022-08-19T05:21:32;29.97;;;27.07;;
703;SDS011;335;48.694;9.120;2022-08-19T05:24:17;28.83;;;25.70;;
703;SDS011;335;48.694;9.120;2022-08-19T05:26:44;26.83;;;24.33;;
703;SDS011;335;48.694;9.120;2022-08-19T05:29:13;28.30;;;25.50;;
703;SDS011;335;48.694;9.120;2022-08-19T05:31:39;29.90;;;26.87;;
703;SDS011;335;48.694;9.120;2022-08-19T05:34:05;27.13;;;24.53;;
703;SDS011;335;48.694;9.120;2022-08-19T05:36:34;26.00;;;23.40;;
703;SDS011;335;48.694;9.120;2022-08-19T05:39:04;27.87;;;24.87;;
703;SDS011;335;48.694;9.120;2022-08-19T05:41:29;28.90;;;26.17;;
703;SDS011;335;48.694;9.120;2022-08-19T05:43:56;29.67;;;27.03;;
703;SDS011;335;48.694;9.120;2022-08-19T05:46:21;29.37;;;26.57;;
703;SDS011;335;48.694;9.120;2022-08-19T05:48:47;28.90;;;26.03;;
703;SDS011;335;48.694;9.120;2022-08-19T05:51:13;30.17;;;27.30;;
703;SDS011;335;48.694;9.120;2022-08-19T05:53:38;25.63;;;23.17;;
703;SDS011;335;48.694;9.120;2022-08-19T05:56:11;27.80;;;25.17;;
703;SDS011;335;48.694;9.120;2022-08-19T05:58:38;26.10;;;23.70;;
703;SDS011;335;48.694;9.120;2022-08-19T06:01:04;26.77;;;24.07;;
703;SDS011;335;48.694;9.120;2022-08-19T06:03:34;26.17;;;23.77;;
703;SDS011;335;48.694;9.120;2022-08-19T06:06:01;27.73;;;24.87;;
703;SDS011;335;48.694;9.120;2022-08-19T06:08:27;27.20;;;24.60;;
703;SDS011;335;48.694;9.120;2022-08-19T06:10:53;25.93;;;23.47;;
703;SDS011;335;48.694;9.120;2022-08-19T06:13:19;25.57;;;23.27;;
703;SDS011;335;48.694;9.120;2022-08-19T06:15:44;26.07;;;23.57;;
703;SDS011;335;48.694;9.120;2022-08-19T06:18:11;26.63;;;24.20;;
703;SDS011;335;48.694;9.120;2022-08-19T06:20:37;26.90;;;24.37;;
703;SDS011;335;48.694;9.120;2022-08-19T06:23:02;26.53;;;24.07;;
703;SDS011;335;48.694;9.120;2022-08-19T06:25:28;26.00;;;23.60;;
703;SDS011;335;48.694;9.120;2022-08-19T06:27:53;26.80;;;24.10;;
703;SDS011;335;48.694;9.120;2022-08-19T06:30:19;26.73;;;24.03;;
703;SDS011;335;48.694;9.120;2022-08-19T06:32:44;24.43;;;21.93;;
703;SDS011;335;48.694;9.120;2022-08-19T06:35:09;26.63;;;24.03;;
703;SDS011;335;48.694;9.120;2022-08-19T06:37:36;26.03;;;23.57;;
703;SDS011;335;48.694;9.120;2022-08-19T06:40:02;27.30;;;24.50;;
703;SDS011;335;48.694;9.120;2022-08-19T06:42:28;24.57;;;22.37;;
703;SDS011;335;48.694;9.120;2022-08-19T06:44:54;25.50;;;23.00;;
703;SDS011;335;48.694;9.120;2022-08-19T06:47:20;26.03;;;23.63;;
703;SDS011;335;48.694;9.120;2022-08-19T06:49:46;25.60;;;23.17;;
703;SDS011;335;48.694;9.120;2022-08-19T06:52:11;27.70;;;25.17;;
703;SDS011;335;48.694;9.120;2022-08-19T06:54:37;27.40;;;24.90;;
703;SDS011;335;48.694;9.120;2022-08-19T06:57:03;23.97;;;21.77;;
703;SDS011;335;48.694;9.120;2022-08-19T06:59:29;24.90;;;22.60;;
703;SDS011;335;48.694;9.120;2022-08-19T07:01:56;25.20;;;23.10;;
703;SDS011;335;48.694;9.120;2022-08-19T07:04:23;26.53;;;23.90;;
703;SDS011;335;48.694;9.120;2022-08-19T07:06:56;25.93;;;23.40;;
703;SDS011;335;48.694;9.120;2022-08-19T07:09:22;26.93;;;24.53;;
703;SDS011;335;48.694;9.120;2022-08-19T07:11:49;25.87;;;23.57;;
703;SDS011;335;48.694;9.120;2022-08-19T07:14:17;27.90;;;25.20;;
703;SDS011;335;48.694;9.120;2022-08-19T07:16:45;25.33;;;23.03;;
703;SDS011;335;48.694;9.120;2022-08-19T07:19:11;26.20;;;23.87;;
703;SDS011;335;48.694;9.120;2022-08-19T07:21:37;26.87;;;24.43;;
703;SDS011;335;48.694;9.120;2022-08-19T07:24:02;27.30;;;24.60;;
703;SDS011;335;48.694;9.120;2022-08-19T07:26:30;28.50;;;25.80;;
703;SDS011;335;48.694;9.120;2022-08-19T07:28:57;26.73;;;24.33;;
703;SDS011;335;48.694;9.120;2022-08-19T07:31:24;24.77;;;22.47;;
703;SDS011;335;48.694;9.120;2022-08-19T07:33:51;29.20;;;26.23;;
703;SDS011;335;48.694;9.120;2022-08-19T07:36:18;25.47;;;23.10;;
703;SDS011;335;48.694;9.120;2022-08-19T07:38:48;25.47;;;23.13;;
703;SDS011;335;48.694;9.120;2022-08-19T07:41:16;25.63;;;23.33;;
703;SDS011;335;48.694;9.120;2022-08-19T07:43:43;27.10;;;24.50;;
703;SDS011;335;48.694;9.120;2022-08-19T07:46:10;27.10;;;24.60;;
703;SDS011;335;48.694;9.120;2022-08-19T07:48:37;26.87;;;24.10;;
703;SDS011;335;48.694;9.120;2022-08-19T07:51:03;24.67;;;22.37;;
703;SDS011;335;48.694;9.120;2022-08-19T07:53:30;25.63;;;23.07;;
703;SDS011;335;48.694;9.120;2022-08-19T07:55:58;24.87;;;22.33;;
703;SDS011;335;48.694;9.120;2022-08-19T07:58:26;23.73;;;21.40;;
703;SDS011;335;48.694;9.120;2022-08-19T08:00:52;24.37;;;21.80;;
703;SDS011;335;48.694;9.120;2022-08-19T08:03:19;25.20;;;23.00;;
703;SDS011;335;48.694;9.120;2022-08-19T08:05:45;24.50;;;22.20;;
703;SDS011;335;48.694;9.120;2022-08-19T08:08:36;23.93;;;21.67;;
703;SDS011;335;48.694;9.120;2022-08-19T08:11:02;22.87;;;20.97;;
703;SDS011;335;48.694;9.120;2022-08-19T08:13:29;22.50;;;20.40;;
703;SDS011;335;48.694;9.120;2022-08-19T08:15:55;24.80;;;22.30;;
703;SDS011;335;48.694;9.120;2022-08-19T08:18:21;23.10;;;21.07;;
703;SDS011;335;48.694;9.120;2022-08-19T08:20:46;23.10;;;21.00;;
703;SDS011;335;48.694;9.120;2022-08-19T08:23:12;25.37;;;23.00;;
703;SDS011;335;48.694;9.120;2022-08-19T08:25:50;25.90;;;23.60;;
703;SDS011;335;48.694;9.120;2022-08-19T08:28:18;24.80;;;22.40;;
703;SDS011;335;48.694;9.120;2022-08-19T08:30:44;26.53;;;24.00;;
703;SDS011;335;48.694;9.120;2022-08-19T08:33:13;24.20;;;22.10;;
703;SDS011;335;48.694;9.120;2022-08-19T08:35:42;25.37;;;22.97;;
703;SDS011;335;48.694;9.120;2022-08-19T08:38:07;25.40;;;22.83;;
703;SDS011;335;48.694;9.120;2022-08-19T08:40:42;24.10;;;21.90;;
703;SDS011;335;48.694;9.120;2022-08-19T08:43:11;24.43;;;22.20;;
703;SDS011;335;48.694;9.120;2022-08-19T08:49:01;26.17;;;23.77;;
703;SDS011;335;48.694;9.120;2022-08-19T08:51:46;27.60;;;24.90;;
703;SDS011;335;48.694;9.120;2022-08-19T08:54:23;27.23;;;24.20;;
703;SDS011;335;48.694;9.120;2022-08-19T08:56:49;25.33;;;22.80;;
703;SDS011;335;48.694;9.120;2022-08-19T08:59:24;25.40;;;23.17;;
703;SDS011;335;48.694;9.120;2022-08-19T09:01:56;26.57;;;24.17;;
703;SDS011;335;48.694;9.120;2022-08-19T09:04:21;24.77;;;22.67;;
703;SDS011;335;48.694;9.120;2022-08-19T09:06:53;28.07;;;25.30;;
703;SDS011;335;48.694;9.120;2022-08-19T09:09:26;26.03;;;23.70;;
703;SDS011;335;48.694;9.120;2022-08-19T09:14:39;26.00;;;23.70;;
703;SDS011;335;48.694;9.120;2022-08-19T09:17:13;26.30;;;23.90;;
703;SDS011;335;48.694;9.120;2022-08-19T09:19:50;25.77;;;23.60;;
703;SDS011;335;48.694;9.120;2022-08-19T09:22:32;25.83;;;23.37;;
703;SDS011;335;48.694;9.120;2022-08-19T09:24:58;22.27;;;20.53;;
703;SDS011;335;48.694;9.120;2022-08-19T09:27:24;26.57;;;24.37;;
703;SDS011;335;48.694;9.120;2022-08-19T09:29:50;25.47;;;22.90;;
703;SDS011;335;48.694;9.120;2022-08-19T09:32:16;25.67;;;23.27;;
703;SDS011;335;48.694;9.120;2022-08-19T09:34:43;43.57;;;29.40;;
703;SDS011;335;48.694;9.120;2022-08-19T09:37:08;28.53;;;25.57;;
703;SDS011;335;48.694;9.120;2022-08-19T09:39:34;24.10;;;22.00;;
703;SDS011;335;48.694;9.120;2022-08-19T09:41:59;23.20;;;21.20;;
703;SDS011;335;48.694;9.120;2022-08-19T09:44:25;23.83;;;21.30;;
703;SDS011;335;48.694;9.120;2022-08-19T09:46:51;24.20;;;22.30;;
703;SDS011;335;48.694;9.120;2022-08-19T09:49:17;24.90;;;22.70;;
703;SDS011;335;48.694;9.120;2022-08-19T09:51:43;24.27;;;22.03;;
703;SDS011;335;48.694;9.120;2022-08-19T09:54:09;22.57;;;20.53;;
703;SDS011;335;48.694;9.120;2022-08-19T09:56:35;24.60;;;22.60;;
703;SDS011;335;48.694;9.120;2022-08-19T09:59:01;22.90;;;21.00;;
703;SDS011;335;48.694;9.120;2022-08-19T10:01:29;22.80;;;20.77;;
703;SDS011;335;48.694;9.120;2022-08-19T10:03:56;20.77;;;18.97;;
703;SDS011;335;48.694;9.120;2022-08-19T10:06:23;21.60;;;19.80;;
703;SDS011;335;48.694;9.120;2022-08-19T10:08:50;24.67;;;22.47;;
703;SDS011;335;48.694;9.120;2022-08-19T10:11:17;22.97;;;20.77;;
703;SDS011;335;48.694;9.120;2022-08-19T10:13:43;23.30;;;21.20;;
703;SDS011;335;48.694;9.120;2022-08-19T10:16:11;24.50;;;22.20;;
703;SDS011;335;48.694;9.120;2022-08-19T10:18:42;22.53;;;20.50;;
703;SDS011;335;48.694;9.120;2022-08-19T10:23:45;22.63;;;20.57;;
703;SDS011;335;48.694;9.120;2022-08-19T10:26:12;21.57;;;19.77;;
703;SDS011;335;48.694;9.120;2022-08-19T10:28:39;19.97;;;18.20;;
703;SDS011;335;48.694;9.120;2022-08-19T10:31:08;20.70;;;18.90;;
703;SDS011;335;48.694;9.120;2022-08-19T10:33:36;20.10;;;18.30;;
703;SDS011;335;48.694;9.120;2022-08-19T10:36:04;20.10;;;18.30;;
703;SDS011;335;48.694;9.120;2022-08-19T10:38:36;21.30;;;19.50;;
703;SDS011;335;48.694;9.120;2022-08-19T10:41:16;19.30;;;17.80;;
703;SDS011;335;48.694;9.120;2022-08-19T10:43:43;20.17;;;18.27;;
703;SDS011;335;48.694;9.120;2022-08-19T10:46:11;18.43;;;16.97;;
703;SDS011;335;48.694;9.120;2022-08-19T10:48:37;17.80;;;16.30;;
703;SDS011;335;48.694;9.120;2022-08-19T10:51:03;16.53;;;15.20;;
703;SDS011;335;48.694;9.120;2022-08-19T10:53:47;18.57;;;17.07;;
703;SDS011;335;48.694;9.120;2022-08-19T10:56:13;18.57;;;16.70;;
703;SDS011;335;48.694;9.120;2022-08-19T10:58:57;15.63;;;14.43;;
703;SDS011;335;48.694;9.120;2022-08-19T11:01:23;15.77;;;14.57;;
703;SDS011;335;48.694;9.120;2022-08-19T11:03:49;16.03;;;14.77;;
703;SDS011;335;48.694;9.120;2022-08-19T11:06:15;16.73;;;15.40;;
703;SDS011;335;48.694;9.120;2022-08-19T11:08:40;15.50;;;14.00;;
703;SDS011;335;48.694;9.120;2022-08-19T11:11:08;16.87;;;15.50;;
703;SDS011;335;48.694;9.120;2022-08-19T11:13:35;17.40;;;15.83;;
703;SDS011;335;48.694;9.120;2022-08-19T11:16:12;15.30;;;13.97;;
703;SDS011;335;48.694;9.120;2022-08-19T11:18:40;17.87;;;16.47;;
703;SDS011;335;48.694;9.120;2022-08-19T11:21:14;15.53;;;14.23;;
703;SDS011;335;48.694;9.120;2022-08-19T11:23:42;16.20;;;14.80;;
703;SDS011;335;48.694;9.120;2022-08-19T11:26:08;13.50;;;12.50;;
703;SDS011;335;48.694;9.120;2022-08-19T11:28:33;16.70;;;14.40;;
703;SDS011;335;48.694;9.120;2022-08-19T11:30:59;15.90;;;14.50;;
703;SDS011;335;48.694;9.120;2022-08-19T11:33:24;14.80;;;13.50;;
703;SDS011;335;48.694;9.120;2022-08-19T11:35:51;15.47;;;13.97;;
703;SDS011;335;48.694;9.120;2022-08-19T11:38:17;14.40;;;13.10;;
703;SDS011;335;48.694;9.120;2022-08-19T11:40:43;14.57;;;13.37;;
703;SDS011;335;48.694;9.120;2022-08-19T11:43:09;15.30;;;14.10;;
703;SDS011;335;48.694;9.120;2022-08-19T11:45:34;15.93;;;14.53;;
703;SDS011;335;48.694;9.120;2022-08-19T11:48:00;13.00;;;12.00;;
703;SDS011;335;48.694;9.120;2022-08-19T11:50:25;12.77;;;11.73;;
703;SDS011;335;48.694;9.120;2022-08-19T11:52:54;13.23;;;12.00;;
703;SDS011;335;48.694;9.120;2022-08-19T11:55:21;12.33;;;11.33;;
703;SDS011;335;48.694;9.120;2022-08-19T11:57:47;13.63;;;12.43;;
703;SDS011;335;48.694;9.120;2022-08-19T12:00:13;12.60;;;11.70;;
703;SDS011;335;48.694;9.120;2022-08-19T12:02:38;12.80;;;11.80;;
703;SDS011;335;48.694;9.120;2022-08-19T12:05:04;14.30;;;12.90;;
703;SDS011;335;48.694;9.120;2022-08-19T12:07:30;13.13;;;11.97;;
703;SDS011;335;48.694;9.120;2022-08-19T12:09:58;13.27;;;12.27;;
703;SDS011;335;48.694;9.120;2022-08-19T12:12:24;13.40;;;12.40;;
703;SDS011;335;48.694;9.120;2022-08-19T12:14:49;11.67;;;10.67;;
703;SDS011;335;48.694;9.120;2022-08-19T12:17:21;11.67;;;10.83;;
703;SDS011;335;48.694;9.120;2022-08-19T12:19:53;16.30;;;15.00;;
703;SDS011;335;48.694;9.120;2022-08-19T12:22:19;16.13;;;14.93;;
703;SDS011;335;48.694;9.120;2022-08-19T12:24:45;16.60;;;15.20;;
703;SDS011;335;48.694;9.120;2022-08-19T12:27:10;15.37;;;14.07;;
703;SDS011;335;48.694;9.120;2022-08-19T12:29:36;18.20;;;16.80;;
703;SDS011;335;48.694;9.120;2022-08-19T12:32:01;15.67;;;14.57;;
703;SDS011;335;48.694;9.120;2022-08-19T12:34:28;17.93;;;16.53;;
703;SDS011;335;48.694;9.120;2022-08-19T12:36:58;19.07;;;17.57;;
703;SDS011;335;48.694;9.120;2022-08-19T12:39:24;19.83;;;18.17;;
703;SDS011;335;48.694;9.120;2022-08-19T12:41:50;18.07;;;16.60;;
703;SDS011;335;48.694;9.120;2022-08-19T12:44:16;20.93;;;19.37;;
703;SDS011;335;48.694;9.120;2022-08-19T12:46:41;20.07;;;18.27;;
703;SDS011;335;48.694;9.120;2022-08-19T12:49:07;18.93;;;17.50;;
703;SDS011;335;48.694;9.120;2022-08-19T12:51:32;20.67;;;18.97;;
703;SDS011;335;48.694;9.120;2022-08-19T12:53:58;20.87;;;19.27;;
703;SDS011;335;48.694;9.120;2022-08-19T12:56:24;19.80;;;18.20;;
703;SDS011;335;48.694;9.120;2022-08-19T12:58:49;21.50;;;19.60;;
703;SDS011;335;48.694;9.120;2022-08-19T13:01:15;23.53;;;21.53;;
703;SDS011;335;48.694;9.120;2022-08-19T13:03:41;25.10;;;23.10;;
703;SDS011;335;48.694;9.120;2022-08-19T13:06:08;26.97;;;24.77;;
703;SDS011;335;48.694;9.120;2022-08-19T13:08:34;25.50;;;23.20;;
703;SDS011;335;48.694;9.120;2022-08-19T13:11:07;23.80;;;21.80;;
703;SDS011;335;48.694;9.120;2022-08-19T13:13:35;25.50;;;23.40;;
703;SDS011;335;48.694;9.120;2022-08-19T13:16:01;25.30;;;23.00;;
703;SDS011;335;48.694;9.120;2022-08-19T13:18:28;26.20;;;23.80;;
703;SDS011;335;48.694;9.120;2022-08-19T13:20:53;29.17;;;26.53;;
703;SDS011;335;48.694;9.120;2022-08-19T13:23:18;26.47;;;24.20;;
703;SDS011;335;48.694;9.120;2022-08-19T13:25:44;28.47;;;25.97;;
703;SDS011;335;48.694;9.120;2022-08-19T13:28:09;27.57;;;25.17;;
703;SDS011;335;48.694;9.120;2022-08-19T13:30:34;28.87;;;26.33;;
703;SDS011;335;48.694;9.120;2022-08-19T13:33:18;28.33;;;25.83;;
703;SDS011;335;48.694;9.120;2022-08-19T13:35:50;28.20;;;25.57;;
703;SDS011;335;48.694;9.120;2022-08-19T13:38:21;30.40;;;27.63;;
703;SDS011;335;48.694;9.120;2022-08-19T13:40:47;30.27;;;27.63;;
703;SDS011;335;48.694;9.120;2022-08-19T13:43:15;29.57;;;26.97;;
703;SDS011;335;48.694;9.120;2022-08-19T13:45:41;31.57;;;28.70;;
703;SDS011;335;48.694;9.120;2022-08-19T13:48:07;32.57;;;29.57;;
703;SDS011;335;48.694;9.120;2022-08-19T13:50:33;31.23;;;28.53;;
703;SDS011;335;48.694;9.120;2022-08-19T13:53:03;30.13;;;27.47;;
703;SDS011;335;48.694;9.120;2022-08-19T13:55:30;30.00;;;27.33;;
703;SDS011;335;48.694;9.120;2022-08-19T13:57:56;31.90;;;29.10;;
703;SDS011;335;48.694;9.120;2022-08-19T14:00:23;28.60;;;26.00;;
703;SDS011;335;48.694;9.120;2022-08-19T14:02:51;31.17;;;28.47;;
703;SDS011;335;48.694;9.120;2022-08-19T14:05:19;31.90;;;28.87;;
703;SDS011;335;48.694;9.120;2022-08-19T14:07:45;31.40;;;28.57;;
703;SDS011;335;48.694;9.120;2022-08-19T14:10:11;32.90;;;29.70;;
703;SDS011;335;48.694;9.120;2022-08-19T14:12:37;32.07;;;29.00;;
703;SDS011;335;48.694;9.120;2022-08-19T14:15:03;34.80;;;31.40;;
703;SDS011;335;48.694;9.120;2022-08-19T14:17:30;29.70;;;26.90;;
703;SDS011;335;48.694;9.120;2022-08-19T14:19:56;33.23;;;30.17;;
703;SDS011;335;48.694;9.120;2022-08-19T14:22:22;30.33;;;27.83;;
703;SDS011;335;48.694;9.120;2022-08-19T14:24:47;33.90;;;30.90;;
703;SDS011;335;48.694;9.120;2022-08-19T14:27:13;30.30;;;27.60;;
703;SDS011;335;48.694;9.120;2022-08-19T14:29:39;28.57;;;25.97;;
703;SDS011;335;48.694;9.120;2022-08-19T14:32:04;30.27;;;27.57;;
703;SDS011;335;48.694;9.120;2022-08-19T14:34:30;32.47;;;29.33;;
703;SDS011;335;48.694;9.120;2022-08-19T14:36:56;31.70;;;28.80;;
703;SDS011;335;48.694;9.120;2022-08-19T14:39:22;27.93;;;25.40;;
703;SDS011;335;48.694;9.120;2022-08-19T14:41:47;30.73;;;28.10;;
703;SDS011;335;48.694;9.120;2022-08-19T14:44:12;29.87;;;27.17;;
703;SDS011;335;48.694;9.120;2022-08-19T14:46:38;31.77;;;29.00;;
703;SDS011;335;48.694;9.120;2022-08-19T14:49:04;28.37;;;25.80;;
703;SDS011;335;48.694;9.120;2022-08-19T14:51:29;28.80;;;25.90;;
703;SDS011;335;48.694;9.120;2022-08-19T14:53:55;26.80;;;24.60;;
703;SDS011;335;48.694;9.120;2022-08-19T14:56:23;31.20;;;28.47;;
703;SDS011;335;48.694;9.120;2022-08-19T14:58:50;27.23;;;25.00;;
703;SDS011;335;48.694;9.120;2022-08-19T15:01:19;27.20;;;24.90;;
703;SDS011;335;48.694;9.120;2022-08-19T15:03:46;26.30;;;24.07;;
703;SDS011;335;48.694;9.120;2022-08-19T15:06:12;28.23;;;25.83;;
703;SDS011;335;48.694;9.120;2022-08-19T15:08:37;25.87;;;23.80;;
703;SDS011;335;48.694;9.120;2022-08-19T15:11:07;24.80;;;22.73;;
703;SDS011;335;48.694;9.120;2022-08-19T15:13:34;24.27;;;22.27;;
703;SDS011;335;48.694;9.120;2022-08-19T15:16:00;23.63;;;21.70;;
703;SDS011;335;48.694;9.120;2022-08-19T15:18:26;23.60;;;21.60;;
703;SDS011;335;48.694;9.120;2022-08-19T15:20:51;25.23;;;23.17;;
703;SDS011;335;48.694;9.120;2022-08-19T15:23:17;24.03;;;22.10;;
703;SDS011;335;48.694;9.120;2022-08-19T15:25:44;24.30;;;22.30;;